NCAR-RAP Real-Time Weather Data

Output produced by METARs form (23 February 2020  02:34 UTC)
found at http://weather.rap.ucar.edu/surface/
 
KTOP 230153Z AUTO 14004KT 10SM CLR 08/M01 A3004 RMK AO2 SLP176 T00831006
KTOP 230053Z 16004KT 10SM CLR 09/00 A3003 RMK AO2 SLP172 T00890000